Time;durP1;ratioP1;P1;durP2;ratioP2;P2;SDS_P1;SDS_P2;PMS_P1;PMS_P2;Temp;Humidity;BMP_temperature;BMP_pressure;BME280_temperature;BME280_humidity;BME280_pressure;Samples;Min_cycle;Max_cycle;Signal;HPM_P1;HPM_P2
2022/04/27 00:03:07;;;;;;;4.32;3.92;;;;;;;14.88;nan;-24232.09;5011896;28;20266;-72
2022/04/27 00:05:35;;;;;;;6.05;3.90;;;;;;;14.55;nan;-24222.97;5009427;28;20573;-72
2022/04/27 00:08:00;;;;;;;5.28;3.97;;;;;;;14.29;nan;-24215.69;5044149;28;20686;-72
2022/04/27 00:10:26;;;;;;;5.25;4.22;;;;;;;14.21;nan;-24213.56;5012055;28;20183;-72
2022/04/27 00:12:51;;;;;;;5.15;3.72;;;;;;;14.52;nan;-24222.13;5012265;28;20171;-72
2022/04/27 00:15:20;;;;;;;6.35;4.07;;;;;;;14.18;nan;-24212.59;5010687;28;20184;-72
2022/04/27 00:17:46;;;;;;;5.88;4.18;;;;;;;14.32;nan;-24216.50;5012305;28;20176;-72
2022/04/27 00:20:11;;;;;;;4.63;4.00;;;;;;;13.95;nan;-24206.41;5012325;28;20494;-72
2022/04/27 00:22:37;;;;;;;4.78;4.13;;;;;;;14.32;nan;-24216.50;5011951;28;20168;-72
2022/04/27 00:25:04;;;;;;;6.55;3.85;;;;;;;14.14;nan;-24211.75;5013844;28;20279;-72
2022/04/27 00:27:31;;;;;;;5.68;4.40;;;;;;;14.02;nan;-24208.25;5016138;28;20237;-72
2022/04/27 00:29:57;;;;;;;6.45;4.50;;;;;;;14.05;nan;-24209.09;5015905;28;20202;-73
2022/04/27 00:32:23;;;;;;;4.63;3.83;;;;;;;14.00;nan;-24207.69;5016398;28;20267;-72
2022/04/27 00:34:49;;;;;;;6.25;4.57;;;;;;;13.73;nan;-24200.38;5015964;28;20626;-72
2022/04/27 00:37:15;;;;;;;7.15;4.60;;;;;;;13.99;nan;-24207.53;5015659;28;20647;-72
2022/04/27 00:39:40;;;;;;;5.43;4.30;;;;;;;13.73;nan;-24200.25;5016020;28;20219;-72
2022/04/27 00:42:17;;;;;;;7.38;4.38;;;;;;;13.96;nan;-24206.69;5016159;28;20600;-72
2022/04/27 00:44:44;;;;;;;6.45;4.50;;;;;;;13.66;nan;-24198.28;5015586;28;20184;-72
2022/04/27 00:47:13;;;;;;;4.90;4.15;;;;;;;13.71;nan;-24199.69;5016218;28;20171;-72
2022/04/27 00:49:46;;;;;;;7.50;4.72;;;;;;;13.54;nan;-24194.91;5015705;28;20168;-72
2022/04/27 00:52:14;;;;;;;6.30;4.57;;;;;;;13.43;nan;-24191.81;5015941;28;20263;-72
2022/04/27 00:54:43;;;;;;;5.60;4.32;;;;;;;13.43;nan;-24191.81;5015342;28;20220;-72
2022/04/27 00:57:10;;;;;;;6.95;4.65;;;;;;;13.57;nan;-24195.75;5015384;28;20163;-72
2022/04/27 00:59:36;;;;;;;5.63;4.72;;;;;;;13.31;nan;-24188.44;5015538;28;20251;-72
2022/04/27 01:02:04;;;;;;;5.95;4.72;;;;;;;13.47;nan;-24192.94;5015510;28;20598;-72
2022/04/27 01:04:32;;;;;;;6.50;4.82;;;;;;;13.51;nan;-24194.06;5015346;28;20200;-72
2022/04/27 01:06:58;;;;;;;6.13;4.95;;;;;;;13.22;nan;-24186.06;5015535;28;20183;-72
2022/04/27 01:09:25;;;;;;;6.82;5.03;;;;;;;13.33;nan;-24189.00;5015049;28;20180;-72
2022/04/27 01:11:50;;;;;;;6.82;4.90;;;;;;;12.98;nan;-24179.44;5014912;28;21106;-72
2022/04/27 01:14:16;;;;;;;7.20;5.18;;;;;;;12.88;nan;-24176.63;5015270;28;20175;-72
2022/04/27 01:16:41;;;;;;;6.82;5.05;;;;;;;12.82;nan;-24175.09;5015468;28;20180;-72
2022/04/27 01:19:07;;;;;;;6.50;5.28;;;;;;;12.79;nan;-24174.09;5015303;28;20172;-72
2022/04/27 01:21:33;;;;;;;7.70;5.25;;;;;;;13.27;nan;-24187.59;5015240;28;20635;-72
2022/04/27 01:23:58;;;;;;;10.25;5.40;;;;;;;13.29;nan;-24188.03;5014998;28;20172;-72
2022/04/27 01:26:24;;;;;;;8.70;5.68;;;;;;;12.84;nan;-24175.50;5014834;28;20176;-72
2022/04/27 01:28:50;;;;;;;7.03;5.43;;;;;;;13.19;nan;-24185.22;5014728;28;20183;-72
2022/04/27 01:31:16;;;;;;;12.98;5.35;;;;;;;12.71;nan;-24171.84;5014907;28;20531;-72
2022/04/27 01:33:41;;;;;;;6.97;4.88;;;;;;;13.09;nan;-24182.41;5014909;28;20250;-72
2022/04/27 01:36:09;;;;;;;7.32;5.32;;;;;;;12.74;nan;-24172.84;5013672;28;20547;-72
2022/04/27 01:38:39;;;;;;;7.57;5.35;;;;;;;13.02;nan;-24180.56;5014425;28;20176;-72
2022/04/27 01:41:05;;;;;;;8.10;5.38;;;;;;;12.67;nan;-24170.88;5012896;28;20276;-72
2022/04/27 01:43:33;;;;;;;7.03;5.20;;;;;;;13.05;nan;-24181.28;5014538;28;20211;-72
2022/04/27 01:45:58;;;;;;;8.45;5.18;;;;;;;13.06;nan;-24181.56;5014577;28;20199;-72
2022/04/27 01:48:23;;;;;;;6.78;5.38;;;;;;;13.13;nan;-24183.66;5014805;28;20621;-72
2022/04/27 01:50:49;;;;;;;6.13;5.30;;;;;;;13.04;nan;-24181.00;5014537;28;20555;-72
2022/04/27 01:55:59;;;;;;;9.32;5.68;;;;;;;12.61;nan;-24169.03;5014545;28;20235;-72
2022/04/27 01:58:25;;;;;;;6.25;5.40;;;;;;;12.78;nan;-24173.97;5014695;28;20184;-72
2022/04/27 02:00:51;;;;;;;6.05;5.30;;;;;;;12.42;nan;-24163.69;5014182;28;20261;-72
2022/04/27 02:03:18;;;;;;;7.82;5.78;;;;;;;12.50;nan;-24166.09;5014267;28;20174;-72
2022/04/27 02:05:44;;;;;;;7.38;5.63;;;;;;;12.33;nan;-24161.44;5014307;28;20743;-72
2022/04/27 02:08:10;;;;;;;8.07;5.65;;;;;;;12.56;nan;-24167.63;5014154;28;20243;-72
2022/04/27 02:10:37;;;;;;;7.72;5.40;;;;;;;12.44;nan;-24164.25;5014843;28;20176;-72
2022/04/27 02:13:03;;;;;;;6.85;5.60;;;;;;;12.51;nan;-24166.22;5014198;28;20172;-72
2022/04/27 02:15:29;;;;;;;7.78;5.90;;;;;;;12.44;nan;-24164.25;5014165;28;20167;-72
2022/04/27 02:17:54;;;;;;;8.65;5.75;;;;;;;12.75;nan;-24173.13;5014020;28;20733;-72
2022/04/27 02:20:22;;;;;;;7.47;6.07;;;;;;;12.45;nan;-24164.69;5028861;28;20207;-72
2022/04/27 02:22:47;;;;;;;6.75;5.53;;;;;;;12.36;nan;-24162.28;5014190;28;20659;-72
2022/04/27 02:25:13;;;;;;;7.00;5.30;;;;;;;12.60;nan;-24168.91;5012715;28;20294;-72
2022/04/27 02:27:38;;;;;;;9.80;5.82;;;;;;;12.71;nan;-24171.84;5013516;28;20176;-72
2022/04/27 02:30:05;;;;;;;9.95;5.95;;;;;;;12.42;nan;-24163.69;5013519;28;20164;-72
2022/04/27 02:32:30;;;;;;;7.95;5.20;;;;;;;12.22;nan;-24158.34;5013524;28;20195;-72
2022/04/27 02:34:56;;;;;;;7.78;6.40;;;;;;;12.42;nan;-24163.69;5013151;28;20169;-72
2022/04/27 02:37:22;;;;;;;7.07;6.35;;;;;;;12.21;nan;-24158.06;5011704;28;20663;-72
2022/04/27 02:39:47;;;;;;;7.50;5.95;;;;;;;12.17;nan;-24156.94;5013181;28;20263;-72
2022/04/27 02:42:13;;;;;;;9.30;6.28;;;;;;;12.25;nan;-24159.06;5013348;28;20188;-72
2022/04/27 02:44:39;;;;;;;8.30;5.82;;;;;;;12.30;nan;-24160.47;5013071;28;20282;-72
2022/04/27 02:47:05;;;;;;;8.93;6.50;;;;;;;12.14;nan;-24155.97;5012493;28;20199;-72
2022/04/27 02:52:14;;;;;;;8.25;6.78;;;;;;;12.27;nan;-24159.75;5013245;28;20678;-72
2022/04/27 02:54:40;;;;;;;8.15;6.40;;;;;;;12.30;nan;-24160.59;5012779;28;20310;-72
2022/04/27 02:57:06;;;;;;;9.60;6.95;;;;;;;12.03;nan;-24152.84;5012034;28;20643;-72
2022/04/27 02:59:33;;;;;;;9.65;6.95;;;;;;;12.03;nan;-24153.00;5012389;28;20176;-72
2022/04/27 03:01:58;;;;;;;10.70;7.10;;;;;;;12.05;nan;-24153.56;5013131;28;20180;-72
2022/04/27 03:04:24;;;;;;;10.75;7.22;;;;;;;11.75;nan;-24145.13;5012821;28;20212;-72
2022/04/27 03:06:49;;;;;;;9.55;6.80;;;;;;;12.24;nan;-24158.78;5011020;28;20196;-72
2022/04/27 03:09:15;;;;;;;7.97;6.93;;;;;;;11.89;nan;-24149.19;5013094;28;20226;-72
2022/04/27 03:11:40;;;;;;;10.40;7.68;;;;;;;11.95;nan;-24150.88;5012979;28;20176;-72
2022/04/27 03:14:05;;;;;;;9.40;7.28;;;;;;;11.89;nan;-24149.19;5008039;28;20574;-72
2022/04/27 03:16:31;;;;;;;10.02;7.78;;;;;;;12.04;nan;-24153.28;4992999;28;20204;-72
2022/04/27 03:18:56;;;;;;;8.43;7.05;;;;;;;12.32;nan;-24161.03;4993126;28;20176;-72
2022/04/27 03:21:22;;;;;;;10.00;7.45;;;;;;;12.21;nan;-24157.91;5001473;28;20598;-72
2022/04/27 03:23:48;;;;;;;14.30;8.38;;;;;;;11.99;nan;-24151.72;5006756;28;20218;-72
2022/04/27 03:26:13;;;;;;;12.13;8.98;;;;;;;11.94;nan;-24150.47;5005319;28;20231;-72
2022/04/27 03:28:38;;;;;;;16.60;8.73;;;;;;;12.29;nan;-24160.31;5006491;28;20238;-72
2022/04/27 03:31:04;;;;;;;10.43;8.40;;;;;;;12.06;nan;-24153.69;5006643;28;20191;-72
2022/04/27 03:33:29;;;;;;;10.68;8.23;;;;;;;12.20;nan;-24157.66;5006097;28;20180;-72
2022/04/27 03:35:55;;;;;;;10.98;8.73;;;;;;;12.07;nan;-24154.00;5006005;28;20263;-72
2022/04/27 03:38:20;;;;;;;11.30;8.18;;;;;;;12.44;nan;-24164.25;5006716;28;20184;-72
2022/04/27 03:40:47;;;;;;;14.65;8.88;;;;;;;12.59;nan;-24168.63;5006606;28;20218;-72
2022/04/27 03:43:13;;;;;;;12.63;8.00;;;;;;;12.96;nan;-24178.88;5005464;28;20180;-72
2022/04/27 03:45:38;;;;;;;12.32;8.38;;;;;;;13.46;nan;-24192.78;5005836;28;20287;-72
2022/04/27 03:48:04;;;;;;;12.30;7.50;;;;;;;14.32;nan;-24216.66;5006435;28;20866;-73
2022/04/27 03:50:29;;;;;;;8.95;7.00;;;;;;;14.57;nan;-24223.53;5005704;28;20184;-73
2022/04/27 03:52:55;;;;;;;8.35;6.30;;;;;;;15.49;nan;-24249.03;5005921;28;20188;-73
2022/04/27 03:55:20;;;;;;;16.42;6.45;;;;;;;15.81;nan;-24257.84;5006302;28;20179;-65
2022/04/27 03:57:46;;;;;;;9.20;5.80;;;;;;;16.66;nan;-24281.50;5006437;28;20184;-65
2022/04/27 04:00:12;;;;;;;11.57;5.72;;;;;;;17.08;nan;-24293.09;5004737;28;20184;-65
2022/04/27 04:02:37;;;;;;;9.35;5.80;;;;;;;17.57;nan;-24306.47;5005754;28;20188;-66
2022/04/27 04:05:07;;;;;;;9.48;6.00;;;;;;;18.08;nan;-24320.56;5004729;28;20748;-66
2022/04/27 04:07:33;;;;;;;10.10;5.80;;;;;;;18.50;nan;-24332.28;5005646;28;20737;-65
2022/04/27 04:09:58;;;;;;;9.55;5.70;;;;;;;18.72;nan;-24338.25;5004431;28;20180;-64
2022/04/27 04:12:24;;;;;;;7.85;5.72;;;;;;;19.32;nan;-24354.81;5006590;28;20338;-64
2022/04/27 04:14:50;;;;;;;9.48;5.72;;;;;;;19.44;nan;-24358.03;5005744;28;20176;-64
2022/04/27 04:17:16;;;;;;;9.80;5.15;;;;;;;20.15;nan;-24377.63;5004754;28;20583;-66
2022/04/27 04:19:41;;;;;;;10.13;5.32;;;;;;;20.38;nan;-24383.75;5006336;28;20207;-66
2022/04/27 04:22:08;;;;;;;7.78;5.05;;;;;;;20.24;nan;-24380.13;5004779;28;20176;-66
2022/04/27 04:24:33;;;;;;;7.47;4.80;;;;;;;20.51;nan;-24387.34;5014859;28;20207;-66
2022/04/27 04:29:43;;;;;;;9.00;5.97;;;;;;;20.27;nan;-24380.97;5003794;28;20246;-66
2022/04/27 04:32:08;;;;;;;8.45;5.95;;;;;;;20.32;nan;-24382.22;5003705;28;20633;-67
2022/04/27 04:34:34;;;;;;;8.57;5.90;;;;;;;20.22;nan;-24379.56;5006777;28;20187;-67
2022/04/27 04:36:59;;;;;;;8.35;6.07;;;;;;;20.38;nan;-24383.75;5005331;28;20596;-67
2022/04/27 04:39:25;;;;;;;8.70;5.72;;;;;;;20.28;nan;-24381.22;5006249;28;20691;-64
2022/04/27 04:41:50;;;;;;;7.72;6.18;;;;;;;20.24;nan;-24380.00;5005077;28;20184;-65
2022/04/27 04:44:16;;;;;;;9.55;6.05;;;;;;;20.35;nan;-24382.91;5004218;28;20204;-65
2022/04/27 04:46:41;;;;;;;22.00;10.18;;;;;;;19.84;nan;-24369.00;5002629;28;20226;-67
2022/04/27 04:49:07;;;;;;;6.97;6.07;;;;;;;19.59;nan;-24362.19;5000174;28;20505;-66
2022/04/27 04:51:33;;;;;;;10.55;6.15;;;;;;;19.50;nan;-24359.56;5000311;28;20183;-67
2022/04/27 04:53:58;;;;;;;10.52;6.25;;;;;;;19.54;nan;-24360.66;5002935;28;20719;-66
2022/04/27 04:56:24;;;;;;;12.68;6.30;;;;;;;19.11;nan;-24348.97;5006393;28;20283;-67
2022/04/27 04:58:49;;;;;;;11.38;7.15;;;;;;;18.85;nan;-24341.75;5006730;28;20622;-65
2022/04/27 05:01:15;;;;;;;8.48;6.43;;;;;;;18.52;nan;-24332.81;5011548;28;20182;-66
2022/04/27 05:03:40;;;;;;;13.00;8.82;;;;;;;18.25;nan;-24325.31;5010342;28;20174;-66
2022/04/27 05:06:06;;;;;;;13.55;7.95;;;;;;;17.99;nan;-24318.19;5010439;28;20208;-67
2022/04/27 05:08:31;;;;;;;10.48;8.15;;;;;;;18.01;nan;-24318.75;5005520;28;20194;-66
2022/04/27 05:10:57;;;;;;;11.02;8.82;;;;;;;17.80;nan;-24312.75;5011265;28;20397;-66
2022/04/27 05:13:23;;;;;;;15.82;9.25;;;;;;;17.04;nan;-24291.97;4996982;28;20177;-64
2022/04/27 05:15:49;;;;;;;12.38;8.68;;;;;;;16.96;nan;-24289.72;5014494;28;20184;-66
2022/04/27 05:18:14;;;;;;;19.17;9.00;;;;;;;16.77;nan;-24284.41;5014335;28;20188;-65
2022/04/27 05:20:40;;;;;;;10.65;8.55;;;;;;;16.67;nan;-24281.78;5014696;28;20164;-65
2022/04/27 05:23:06;;;;;;;11.30;9.15;;;;;;;16.57;nan;-24278.97;5014611;28;20517;-65
2022/04/27 05:25:34;;;;;;;13.05;10.25;;;;;;;16.61;nan;-24280.09;5014644;28;20184;-65
2022/04/27 05:28:02;;;;;;;13.25;10.50;;;;;;;16.82;nan;-24285.69;5014309;28;20187;-66
2022/04/27 05:33:12;;;;;;;12.25;9.70;;;;;;;16.46;nan;-24275.75;5014237;28;20230;-66
2022/04/27 05:35:41;;;;;;;11.55;9.07;;;;;;;16.98;nan;-24290.16;5014163;28;20269;-67
2022/04/27 05:38:08;;;;;;;11.32;8.38;;;;;;;17.29;nan;-24298.81;5014462;28;20231;-65
2022/04/27 05:40:34;;;;;;;10.95;7.40;;;;;;;17.19;nan;-24296.00;5013956;28;20196;-65
2022/04/27 05:43:00;;;;;;;8.57;6.60;;;;;;;17.00;nan;-24290.84;5013909;28;20196;-65
2022/04/27 05:45:26;;;;;;;6.72;6.00;;;;;;;16.89;nan;-24287.63;5014174;28;20238;-66
2022/04/27 05:47:51;;;;;;;8.75;6.45;;;;;;;17.12;nan;-24294.06;5014174;28;20180;-67
2022/04/27 05:50:17;;;;;;;8.50;6.47;;;;;;;17.01;nan;-24291.00;5013274;28;20164;-66
2022/04/27 05:52:54;;;;;;;8.43;6.75;;;;;;;16.83;nan;-24285.97;5014135;28;20234;-66
2022/04/27 05:55:20;;;;;;;10.30;6.95;;;;;;;17.21;nan;-24296.56;5014852;28;20183;-65
2022/04/27 05:57:46;;;;;;;9.90;6.45;;;;;;;17.34;nan;-24300.06;5014345;28;20636;-65
2022/04/27 06:00:12;;;;;;;8.82;5.80;;;;;;;16.98;nan;-24290.28;5013893;28;20259;-65
2022/04/27 06:02:38;;;;;;;8.88;6.40;;;;;;;17.33;nan;-24299.91;5014231;28;20654;-66
2022/04/27 06:05:05;;;;;;;10.60;5.90;;;;;;;17.18;nan;-24295.88;5013055;28;20208;-67
2022/04/27 06:07:31;;;;;;;7.95;6.10;;;;;;;17.77;nan;-24312.06;5013623;28;20210;-68
2022/04/27 06:09:56;;;;;;;7.20;5.80;;;;;;;17.96;nan;-24317.22;5013785;28;20623;-68
2022/04/27 06:12:25;;;;;;;8.00;5.55;;;;;;;18.03;nan;-24319.31;5013945;28;20180;-67
2022/04/27 06:14:50;;;;;;;10.80;5.63;;;;;;;18.21;nan;-24324.06;5013878;28;20199;-67
2022/04/27 06:17:17;;;;;;;9.77;6.22;;;;;;;18.19;nan;-24323.63;5014020;28;20180;-65
2022/04/27 06:19:42;;;;;;;9.15;6.03;;;;;;;18.75;nan;-24339.09;5014145;28;20319;-67
2022/04/27 06:22:08;;;;;;;5.97;4.80;;;;;;;18.58;nan;-24334.22;5013135;28;20669;-67
2022/04/27 06:24:33;;;;;;;8.18;5.72;;;;;;;18.58;nan;-24334.22;5013431;28;20191;-66
2022/04/27 06:26:58;;;;;;;9.68;5.63;;;;;;;18.72;nan;-24338.25;5013804;28;20653;-67
2022/04/27 06:29:24;;;;;;;6.95;5.20;;;;;;;18.69;nan;-24337.28;5013820;28;20229;-66
2022/04/27 06:31:49;;;;;;;6.80;5.10;;;;;;;18.92;nan;-24343.69;5013809;28;20255;-67
2022/04/27 06:34:14;;;;;;;7.65;5.25;;;;;;;18.91;nan;-24343.41;5013798;28;20172;-65
2022/04/27 06:36:40;;;;;;;8.60;6.03;;;;;;;19.32;nan;-24354.81;5013532;28;20568;-65
2022/04/27 06:39:07;;;;;;;6.90;5.10;;;;;;;19.26;nan;-24353.00;5013326;28;20214;-67
2022/04/27 06:41:33;;;;;;;6.40;4.47;;;;;;;19.51;nan;-24359.84;5013493;28;20181;-67
2022/04/27 06:43:58;;;;;;;7.57;4.43;;;;;;;19.30;nan;-24354.28;5013612;28;20168;-68
2022/04/27 06:46:24;;;;;;;4.80;3.95;;;;;;;19.22;nan;-24351.91;5013344;28;20207;-68
2022/04/27 06:48:49;;;;;;;6.30;4.15;;;;;;;18.95;nan;-24344.53;5013219;28;20195;-67
2022/04/27 06:51:17;;;;;;;8.48;3.45;;;;;;;19.33;nan;-24354.97;5012939;28;20242;-66
2022/04/27 06:53:43;;;;;;;5.28;4.38;;;;;;;18.94;nan;-24344.25;5012926;28;20216;-66
2022/04/27 06:56:08;;;;;;;7.22;4.13;;;;;;;19.52;nan;-24360.13;5012877;28;20227;-67
2022/04/27 06:58:35;;;;;;;7.18;4.13;;;;;;;19.64;nan;-24363.59;5012779;28;20636;-68
2022/04/27 07:01:03;;;;;;;4.88;3.40;;;;;;;19.42;nan;-24357.59;5013104;28;20172;-68
2022/04/27 07:03:31;;;;;;;5.18;3.35;;;;;;;20.04;nan;-24374.44;5012591;28;20176;-67
2022/04/27 07:05:57;;;;;;;5.50;4.25;;;;;;;19.83;nan;-24368.88;5012112;28;20276;-67
2022/04/27 07:08:22;;;;;;;4.93;3.90;;;;;;;19.78;nan;-24367.34;5012842;28;20266;-66
2022/04/27 07:10:49;;;;;;;4.85;4.05;;;;;;;20.03;nan;-24374.16;5013020;28;20250;-66
2022/04/27 07:13:14;;;;;;;5.43;3.70;;;;;;;20.49;nan;-24386.94;5013118;28;20275;-66
2022/04/27 07:15:40;;;;;;;5.70;3.60;;;;;;;20.70;nan;-24392.63;5013018;28;20172;-66
2022/04/27 07:18:05;;;;;;;5.75;3.67;;;;;;;20.61;nan;-24390.25;5013446;28;20169;-67
2022/04/27 07:20:31;;;;;;;5.97;4.00;;;;;;;20.87;nan;-24397.34;5012767;28;20603;-68
2022/04/27 07:22:56;;;;;;;5.65;4.35;;;;;;;20.41;nan;-24384.72;5012920;28;20180;-68
2022/04/27 07:25:21;;;;;;;7.65;4.53;;;;;;;20.22;nan;-24379.44;5012715;28;20620;-67
2022/04/27 07:27:47;;;;;;;5.00;4.20;;;;;;;20.45;nan;-24385.69;5012683;28;20184;-67
2022/04/27 07:30:13;;;;;;;7.70;4.88;;;;;;;20.98;nan;-24400.38;5012745;28;20179;-68
2022/04/27 07:32:38;;;;;;;7.72;4.65;;;;;;;20.39;nan;-24384.16;5012674;28;20180;-68
2022/04/27 07:35:04;;;;;;;6.57;4.90;;;;;;;20.65;nan;-24391.38;5011619;28;20175;-69
2022/04/27 07:37:29;;;;;;;6.97;4.47;;;;;;;20.87;nan;-24397.34;5012538;28;20175;-68
2022/04/27 07:39:55;;;;;;;9.43;4.70;;;;;;;21.30;nan;-24409.00;5012209;28;20642;-67
2022/04/27 07:42:21;;;;;;;8.02;4.30;;;;;;;20.94;nan;-24399.16;5011913;28;20199;-69
2022/04/27 07:44:46;;;;;;;10.50;4.57;;;;;;;21.15;nan;-24405.09;5012152;28;20192;-68
2022/04/27 07:47:13;;;;;;;6.50;4.63;;;;;;;21.23;nan;-24407.03;5011929;28;20172;-68
2022/04/27 07:49:38;;;;;;;9.23;5.38;;;;;;;20.79;nan;-24395.13;5012084;28;20698;-68
2022/04/27 07:52:04;;;;;;;9.10;4.72;;;;;;;20.76;nan;-24394.28;5012219;28;20175;-69
2022/04/27 07:54:29;;;;;;;5.07;4.47;;;;;;;20.70;nan;-24392.75;5011928;28;20223;-67
2022/04/27 07:56:55;;;;;;;8.07;5.20;;;;;;;21.08;nan;-24403.16;5012166;28;20172;-69
2022/04/27 07:59:20;;;;;;;6.28;4.80;;;;;;;20.61;nan;-24390.13;5011992;28;20244;-68
2022/04/27 08:01:46;;;;;;;8.07;5.18;;;;;;;20.53;nan;-24388.03;5012867;28;20172;-69
2022/04/27 08:04:11;;;;;;;11.73;5.18;;;;;;;20.61;nan;-24390.25;5012067;28;20215;-69
2022/04/27 08:06:37;;;;;;;9.70;5.80;;;;;;;20.79;nan;-24394.97;5012097;28;20718;-69
2022/04/27 08:09:02;;;;;;;8.73;4.95;;;;;;;21.12;nan;-24404.28;5012416;28;20172;-69
2022/04/27 08:11:28;;;;;;;6.65;4.93;;;;;;;21.53;nan;-24415.38;5012219;28;20179;-68
2022/04/27 08:13:53;;;;;;;7.72;5.05;;;;;;;21.40;nan;-24411.75;5012223;28;20188;-66
2022/04/27 08:16:18;;;;;;;8.15;4.95;;;;;;;21.35;nan;-24410.50;5012063;28;20171;-66
2022/04/27 08:18:45;;;;;;;10.90;4.97;;;;;;;21.26;nan;-24408.03;5011537;28;20183;-67
2022/04/27 08:21:14;;;;;;;6.93;5.30;;;;;;;21.40;nan;-24411.75;5012000;28;20172;-68
2022/04/27 08:23:40;;;;;;;7.00;4.80;;;;;;;21.18;nan;-24405.81;5012327;28;20202;-67
2022/04/27 08:26:07;;;;;;;11.70;5.88;;;;;;;21.32;nan;-24409.69;5011695;28;20226;-68
2022/04/27 08:28:34;;;;;;;10.63;5.50;;;;;;;21.11;nan;-24403.84;5011764;28;20190;-67
2022/04/27 08:31:00;;;;;;;8.40;5.25;;;;;;;20.83;nan;-24396.22;5011644;28;20299;-68
2022/04/27 08:33:26;;;;;;;8.88;5.15;;;;;;;20.98;nan;-24400.25;5011366;28;20277;-67
2022/04/27 08:35:55;;;;;;;7.53;4.63;;;;;;;21.27;nan;-24408.16;5012004;28;20173;-67
2022/04/27 08:38:20;;;;;;;11.07;4.70;;;;;;;21.44;nan;-24413.00;5011669;28;20510;-66
2022/04/27 08:40:46;;;;;;;10.27;5.43;;;;;;;21.39;nan;-24411.63;5011718;28;20172;-68
2022/04/27 08:43:13;;;;;;;6.13;4.68;;;;;;;21.38;nan;-24411.34;5011721;28;20238;-68
2022/04/27 08:45:43;;;;;;;10.52;4.28;;;;;;;21.45;nan;-24413.28;5012456;28;20675;-68
2022/04/27 08:48:10;;;;;;;7.63;4.68;;;;;;;22.11;nan;-24431.16;5015303;28;20270;-68
2022/04/27 08:50:35;;;;;;;8.30;5.13;;;;;;;21.95;nan;-24427.00;5014823;28;20654;-67
2022/04/27 08:53:01;;;;;;;7.57;4.65;;;;;;;21.80;nan;-24422.72;5015152;28;20200;-68
2022/04/27 08:55:27;;;;;;;11.27;5.00;;;;;;;22.26;nan;-24435.44;5015049;28;20183;-68
2022/04/27 08:57:53;;;;;;;8.95;4.97;;;;;;;21.73;nan;-24420.78;5015348;28;20215;-67
2022/04/27 09:00:21;;;;;;;7.90;4.95;;;;;;;21.89;nan;-24425.34;5015125;28;20176;-69
2022/04/27 09:02:48;;;;;;;10.68;5.20;;;;;;;21.68;nan;-24419.53;5015024;28;20228;-67
2022/04/27 09:05:20;;;;;;;7.35;4.78;;;;;;;22.14;nan;-24432.00;5014884;28;20294;-68
2022/04/27 09:07:52;;;;;;;5.93;4.78;;;;;;;22.10;nan;-24430.88;5014984;28;20164;-69
2022/04/27 09:10:25;;;;;;;9.02;5.10;;;;;;;21.76;nan;-24421.75;5015158;28;20180;-67
2022/04/27 09:12:57;;;;;;;6.93;4.88;;;;;;;21.96;nan;-24427.16;5014454;28;20565;-67
2022/04/27 09:15:25;;;;;;;7.57;4.60;;;;;;;21.93;nan;-24426.31;5014844;28;20180;-68
2022/04/27 09:20:47;;;;;;;8.00;5.00;;;;;;;22.17;nan;-24432.81;5014674;28;20274;-67
2022/04/27 09:23:28;;;;;;;10.63;5.00;;;;;;;22.30;nan;-24436.56;5013155;28;20843;-69
2022/04/27 09:25:56;;;;;;;9.57;5.13;;;;;;;21.63;nan;-24418.13;5014193;28;20208;-68
2022/04/27 09:28:23;;;;;;;10.98;5.10;;;;;;;22.30;nan;-24436.41;5015108;28;20176;-67
2022/04/27 09:30:49;;;;;;;9.35;5.07;;;;;;;22.41;nan;-24439.47;5014764;28;20175;-69
2022/04/27 09:33:37;;;;;;;7.05;4.80;;;;;;;22.46;nan;-24440.84;5014478;28;20184;-69
2022/04/27 09:36:19;;;;;;;7.03;5.07;;;;;;;21.83;nan;-24423.69;5014675;28;20172;-67
2022/04/27 09:38:44;;;;;;;6.85;4.72;;;;;;;21.77;nan;-24422.00;5014606;28;20193;-68
2022/04/27 09:41:10;;;;;;;9.98;4.75;;;;;;;21.87;nan;-24424.66;5014342;28;20247;-66
2022/04/27 09:43:46;;;;;;;10.90;4.93;;;;;;;22.33;nan;-24437.25;5014310;28;20176;-68
2022/04/27 09:46:25;;;;;;;6.43;4.13;;;;;;;22.09;nan;-24430.59;5014370;28;20202;-67
2022/04/27 09:49:13;;;;;;;6.47;4.28;;;;;;;22.04;nan;-24429.34;5014612;28;20179;-67
2022/04/27 09:51:54;;;;;;;8.32;4.80;;;;;;;21.99;nan;-24428.13;5014361;28;20205;-67
2022/04/27 09:54:23;;;;;;;7.50;4.47;;;;;;;22.06;nan;-24429.91;5014176;28;20222;-68
2022/04/27 09:56:56;;;;;;;4.65;4.22;;;;;;;21.95;nan;-24426.88;5012392;28;20265;-69
2022/04/27 09:59:30;;;;;;;8.90;4.78;;;;;;;21.67;nan;-24419.25;5014302;28;20180;-68
2022/04/27 10:01:59;;;;;;;8.77;4.20;;;;;;;21.87;nan;-24424.78;5014530;28;20754;-68
2022/04/27 10:04:29;;;;;;;6.15;4.28;;;;;;;22.11;nan;-24431.16;5014309;28;20176;-68
2022/04/27 10:07:00;;;;;;;6.70;4.30;;;;;;;21.69;nan;-24419.78;5014312;28;20275;-69
2022/04/27 10:09:29;;;;;;;6.00;4.10;;;;;;;21.63;nan;-24418.13;5014178;28;20263;-67
2022/04/27 10:11:59;;;;;;;7.90;4.63;;;;;;;22.08;nan;-24430.31;5014328;28;20176;-67
2022/04/27 10:14:27;;;;;;;8.30;4.40;;;;;;;21.83;nan;-24423.53;5013715;28;20176;-66
2022/04/27 10:16:54;;;;;;;8.30;4.40;;;;;;;21.93;nan;-24426.31;5012518;28;20176;-68
2022/04/27 10:19:20;;;;;;;5.68;4.30;;;;;;;22.39;nan;-24439.03;5014237;28;20580;-68
2022/04/27 10:21:56;;;;;;;7.72;4.65;;;;;;;22.02;nan;-24428.94;5013558;28;20223;-68
2022/04/27 10:24:34;;;;;;;8.38;4.28;;;;;;;22.22;nan;-24434.34;5013641;28;20164;-67
2022/04/27 10:27:42;;;;;;;7.50;4.90;;;;;;;22.57;nan;-24443.75;5013488;28;20246;-68
2022/04/27 10:30:09;;;;;;;9.02;4.30;;;;;;;22.73;nan;-24448.31;5015340;28;20195;-68
2022/04/27 10:32:41;;;;;;;6.95;3.90;;;;;;;22.43;nan;-24440.00;5013847;28;20259;-68
2022/04/27 10:35:19;;;;;;;5.07;3.20;;;;;;;22.69;nan;-24447.06;5013596;28;20186;-67
2022/04/27 10:37:57;;;;;;;6.93;4.20;;;;;;;22.69;nan;-24447.19;5013723;28;20174;-68
2022/04/27 10:40:34;;;;;;;8.52;3.75;;;;;;;22.69;nan;-24447.19;5013284;28;20180;-67
2022/04/27 10:43:10;;;;;;;8.23;3.60;;;;;;;22.73;nan;-24448.31;5012834;28;20187;-67
2022/04/27 10:45:44;;;;;;;6.72;3.80;;;;;;;22.74;nan;-24448.59;5013065;28;20273;-68
2022/04/27 10:48:36;;;;;;;4.68;3.47;;;;;;;22.87;nan;-24452.19;5013280;28;20188;-68
2022/04/27 10:51:07;;;;;;;5.55;4.30;;;;;;;22.65;nan;-24445.97;5027122;28;20573;-67
2022/04/27 10:53:40;;;;;;;4.35;3.95;;;;;;;22.78;nan;-24449.69;5012950;28;20223;-69
2022/04/27 10:56:23;;;;;;;5.75;4.00;;;;;;;22.90;nan;-24452.88;5013202;28;20686;-68
2022/04/27 10:58:48;;;;;;;5.93;3.80;;;;;;;23.19;nan;-24460.75;5013068;28;20191;-68
2022/04/27 11:01:24;;;;;;;9.82;3.70;;;;;;;23.17;nan;-24460.34;5012962;28;20601;-69
2022/04/27 11:04:16;;;;;;;4.85;3.38;;;;;;;23.26;nan;-24462.69;5013148;28;20647;-69
2022/04/27 11:07:10;;;;;;;7.68;2.80;;;;;;;22.97;nan;-24454.66;5013364;28;20224;-69
2022/04/27 11:10:03;;;;;;;4.88;2.75;;;;;;;22.66;nan;-24446.38;5020187;28;20250;-68
2022/04/27 11:12:32;;;;;;;6.22;2.90;;;;;;;23.00;nan;-24455.50;5013344;28;20168;-69
2022/04/27 11:14:59;;;;;;;4.68;2.58;;;;;;;22.87;nan;-24452.03;5012860;28;20179;-69
2022/04/27 11:17:28;;;;;;;6.03;2.70;;;;;;;23.02;nan;-24456.19;5012913;28;20179;-69
2022/04/27 11:19:54;;;;;;;3.35;2.40;;;;;;;22.98;nan;-24455.09;5012661;28;20647;-68
2022/04/27 11:22:20;;;;;;;3.95;2.47;;;;;;;23.37;nan;-24465.72;5012950;28;20168;-69
2022/04/27 11:24:49;;;;;;;3.72;2.65;;;;;;;23.25;nan;-24462.41;5012689;28;20202;-68
2022/04/27 11:27:26;;;;;;;7.28;2.58;;;;;;;23.42;nan;-24466.97;5012736;28;20180;-68
2022/04/27 11:29:53;;;;;;;3.40;2.50;;;;;;;22.82;nan;-24450.81;5012787;28;20175;-68
2022/04/27 11:32:18;;;;;;;6.15;2.75;;;;;;;23.40;nan;-24466.41;5012711;28;20254;-68
2022/04/27 11:34:48;;;;;;;4.50;2.45;;;;;;;23.23;nan;-24462.00;5012205;28;20259;-68
2022/04/27 11:37:16;;;;;;;6.88;3.38;;;;;;;23.57;nan;-24471.13;5012250;28;20195;-68
2022/04/27 11:39:43;;;;;;;5.13;2.88;;;;;;;23.96;nan;-24481.88;5012698;28;20168;-69
2022/04/27 11:42:12;;;;;;;4.50;3.20;;;;;;;24.28;nan;-24490.44;5012424;28;20176;-68
2022/04/27 11:44:38;;;;;;;5.47;2.80;;;;;;;23.66;nan;-24473.75;5012311;28;20259;-68
2022/04/27 11:47:04;;;;;;;4.72;2.55;;;;;;;23.70;nan;-24474.69;5011981;28;20618;-68
2022/04/27 11:49:29;;;;;;;6.30;2.60;;;;;;;23.71;nan;-24474.97;5012352;28;20164;-68
2022/04/27 11:51:55;;;;;;;6.93;2.85;;;;;;;24.13;nan;-24486.44;5012421;28;20176;-68
2022/04/27 11:54:34;;;;;;;4.15;2.70;;;;;;;24.35;nan;-24492.50;5012516;28;20223;-63
2022/04/27 11:57:03;;;;;;;4.32;2.88;;;;;;;24.27;nan;-24490.28;5012430;28;20647;-62